Nearby METAR Reports

Meteorological Terminal Air Report (METAR)

K3I2 - Pt Pleasant, West Virginia, USA
Distance from station: S 11mi, 18km
Updated: Mon, 06-Dec-2021 4:15am EST
Rain, Overcast
Rain, Overcast
 Wind from SSE
Wind: SSE 5 mph , 7 km/h
Temperature: 55°F , 13°C
Dew Point: 52°F , 11°C
Humidity: 88%
Barometer: 29.79 inHg , 1008.8 hPa
Summary: Rain
Clouds: Overcast
Visibility: 7 miles , 11 km
Cloud details: Partly cloudy 2900 ft
Mostly cloudy 3700 ft
Overcast 4400 ft
2021/12/06 09:15 K3I2 060915Z AUTO 16004KT 7SM RA SCT029 BKN037 OVC044 13/11 A2979 RMK AO2 T01260108
KUNI - Athens, Ohio, USA
Distance from station: NW 13mi, 21km
Updated: Mon, 06-Dec-2021 4:15am EST
Rain, Overcast
Rain, Overcast
 Wind from S
Wind: S 7 mph , 11 km/h, Gust: 18 mph , 30 km/h
Temperature: 54°F , 12°C
Dew Point: 54°F , 12°C
Humidity: 100%
Barometer: 29.74 inHg , 1007.1 hPa
Summary: Rain
Clouds: Overcast
Visibility: 7 miles , 11 km
Cloud details: Partly cloudy 2400 ft
Mostly cloudy 4900 ft
Overcast 7000 ft
2021/12/06 09:15 KUNI 060915Z AUTO 18006G16KT 7SM RA SCT024 BKN049 OVC070 12/12 A2974 RMK AO2 P0004 T01200120
 
KPKB - Parkersburg, West Virginia, USA
Distance from station: ENE 40mi, 65km
Updated: Mon, 06-Dec-2021 3:53am EST
Overcast
Overcast
 Wind from S
Wind: S 9 mph , 15 km/h
Temperature: 52°F , 11°C
Dew Point: 46°F , 8°C
Humidity: 82%
Barometer: 29.78 inHg , 1008.5 hPa
Clouds: Overcast
Visibility: 10 miles , 16 km
Cloud details: Overcast 3900 ft
2021/12/06 08:53 KPKB 060853Z AUTO 19008KT 10SM OVC039 11/08 A2978 RMK AO2 RAB01E51 SLP082 P0009 60018 T01110083 56025
KCRW - Charleston, West Virginia, USA
Distance from station: SSE 55mi, 88km
Updated: Mon, 06-Dec-2021 3:54am EST
Overcast
Overcast
 Wind from SSW
Wind: SSW 13 mph , 20 km/h, Gust: 18 mph , 30 km/h
Temperature: 57°F , 14°C
Dew Point: 50°F , 10°C
Humidity: 77%
Barometer: 29.81 inHg , 1009.5 hPa
Clouds: Overcast
Visibility: 10 miles , 16 km
Cloud details: Mostly cloudy 5000 ft
Overcast 10000 ft
2021/12/06 08:54 KCRW 060854Z 20011G16KT 10SM BKN050 OVC100 14/10 A2981 RMK AO2 SLP091 6//// T01390100 58031 PNO
 
KHTS - Huntington, West Virginia, USA
Distance from station: SSW 55mi, 89km
Updated: Mon, 06-Dec-2021 3:51am EST
Light rain, Overcast
Light rain, Overcast
 Wind from S
Wind: S 5 mph , 7 km/h
Temperature: 57°F , 14°C
Dew Point: 52°F , 11°C
Humidity: 82%
Barometer: 29.77 inHg , 1008.1 hPa
Summary: Light rain
Clouds: Overcast
Visibility: 10 miles , 16 km
Cloud details: Few Clouds 3800 ft
Mostly cloudy 6000 ft
Overcast 7500 ft
2021/12/06 08:51 KHTS 060851Z 17004KT 10SM -RA FEW038 BKN060 OVC075 14/11 A2977 RMK AO2 RAE12B45 SLP075 P0000 60005 T01440106 58025 $
KLHQ - Lancaster, Ohio, USA
Distance from station: NW 56mi, 91km
Updated: Mon, 06-Dec-2021 3:53am EST
Light rain, Overcast
Light rain, Overcast
 Wind from SSW
Wind: SSW 14 mph , 22 km/h, Gust: 22 mph , 35 km/h
Temperature: 59°F , 15°C
Dew Point: 57°F , 14°C
Humidity: 94%
Barometer: 29.69 inHg , 1005.4 hPa
Summary: Light rain
Clouds: Overcast
Visibility: 7 miles , 11 km
Cloud details: Mostly cloudy 1700 ft
Mostly cloudy 2100 ft
Overcast 7000 ft
2021/12/06 08:53 KLHQ 060853Z AUTO 20012G19KT 7SM -RA BKN017 BKN021 OVC070 15/14 A2969 RMK AO2 PK WND 20027/0758 RAB0758 SLP053 P0009 60016 T01500139 56012
 
KZZV - Zanesville, Ohio, USA
Distance from station: N 61mi, 99km
Updated: Mon, 06-Dec-2021 3:53am EST
Light rain, Overcast
Light rain, Overcast
 Wind from S
Wind: S 22 mph , 35 km/h, Gust: 31 mph , 50 km/h
Temperature: 55°F , 13°C
Dew Point: 52°F , 11°C
Humidity: 88%
Barometer: 29.70 inHg , 1005.8 hPa
Summary: Light rain
Clouds: Overcast
Visibility: 8 miles , 13 km
Cloud details: Mostly cloudy 1400 ft
Overcast 1900 ft
2021/12/06 08:53 KZZV 060853Z AUTO 18019G27KT 8SM -RA BKN014 OVC019 13/11 A2970 RMK AO2 PK WND 17027/0848 RAB42 SLP058 P0000 60001 T01280106 58023
KLCK - Rickenbacker Ang, Ohio, USA
Distance from station: NW 68mi, 110km
Updated: Mon, 06-Dec-2021 3:55am EST
Overcast
Overcast
 Wind from SSW
Wind: SSW 7 mph , 11 km/h
Temperature: 55°F , 13°C
Dew Point: 54°F , 12°C
Humidity: 94%
Barometer: 29.69 inHg , 1005.4 hPa
Clouds: Overcast
Visibility: 10 miles , 16 km
Cloud details: Partly cloudy 1600 ft
Mostly cloudy 2000 ft
Overcast 2700 ft
2021/12/06 08:55 KLCK 060855Z AUTO 20006KT 10SM SCT016 BKN020 OVC027 13/12 A2969 RMK AO2 T01330123
 
KVTA - Newark, Ohio, USA
Distance from station: NNW 68mi, 110km
Updated: Mon, 06-Dec-2021 4:26am EST
Rain, Overcast
Rain, Overcast
 Wind from SW
Wind: SW 8 mph , 13 km/h
Temperature: 57°F , 14°C
Dew Point: 54°F , 12°C
Humidity: 88%
Barometer: 29.67 inHg , 1004.7 hPa
Summary: Rain
Clouds: Overcast
Visibility: 4 miles , 6 km
Cloud details: Partly cloudy 1300 ft
Mostly cloudy 2200 ft
Overcast 4500 ft
2021/12/06 09:26 KVTA 060926Z AUTO 23007KT 4SM RA SCT013 BKN022 OVC045 14/12 A2967 RMK AO2 P0009 T01440117 $